• Join FlightAware (Why Join?)
  • Login
  • US Flag 
10:11AM EDT


 

Airport Tracker/Info


-or-


 

Live Flight TrackerFlight Track Log ✈ ASQ4375 ✈ 05-May-2012 ✈ KEWR - KBTV

Flight Track Log - Related Links

Times and Time Zones

All times are in EDT time to prevent confusion due to time zone crossing. See the ASQ4375 flight status page for this flight to view local times or setup timezone preferences in your user account.

Time Position Orientation Groundspeed Altitude Reporting Facility
EDT Latitude Longitude Course Direction KTS MPH feet Rate Location/Type
10:47AM 40.7722 -74.1611 359° North 205 236 2,800  Level Boston Center
10:48AM 40.8325 -74.1628 37° Northeast 193 222 4,400 2,100 Climbing Boston Center
10:49AM 40.8917 -74.1039 55° Northeast 216 249 7,000 2,340 Climbing Boston Center
10:50AM 40.9347 -74.0225 75° East 245 282 9,100 1,560 Climbing Boston Center
10:51AM 40.9569 -73.9158 49° Northeast 261 300 10,200 1,200 Climbing Boston Center
10:52AM 41.0250 -73.8131 39° Northeast 305 351 11,500 1,440 Climbing Boston Center
10:53AM 41.0944 -73.7372 39° Northeast 341 392 13,100 1,740 Climbing Boston Center
10:54AM 41.1811 -73.6425 53° Northeast 360 414 15,000 1,620 Climbing Boston Center
10:55AM 41.2447 -73.5306 54° Northeast 372 428 16,400 1,200 Climbing Boston Center
10:56AM 41.3083 -73.4156 51° Northeast 386 444 17,500 780 Climbing Boston Center
10:57AM 41.3739 -73.3086 45° Northeast 399 459 18,000 540 Climbing Boston Center
10:58AM 41.4622 -73.1908 18° North 407 468 18,600 1,020 Climbing Boston Center
10:59AM 41.5667 -73.1447 359° North 377 434 20,100 1,560 Climbing Boston Center
11:00AM 41.6731 -73.1461 360° North 364 419 21,800 1,380 Climbing Boston Center
11:01AM 41.7792 -73.1472 360° North 369 425 22,900 960 Climbing Boston Center
11:02AM 41.8897 -73.1483 358° North 376 433 23,800 960 Climbing Boston Center
11:03AM 42.0000 -73.1525 North 386 444 24,900 600 Climbing Boston Center
11:04AM 42.1128 -73.1508 359° North 386 444 25,000  Climbing Boston Center
11:05AM 42.2272 -73.1522 North 398 458 25,000  Level Boston Center
11:06AM 42.3439 -73.1481 North 411 473 25,000  Level Boston Center
11:07AM 42.4586 -73.1464 360° North 411 473 25,000  Level Boston Center
11:08AM 42.5775 -73.1478 359° North 411 473 25,000  Level Boston Center
11:09AM 42.6961 -73.1519 345° North 421 484 25,000  Level Boston Center
11:10AM 42.7897 -73.1869 334° Northwest 416 479 25,000  Level Boston Center
11:11AM 42.8914 -73.2533 335° Northwest 393 452 25,000  Level Boston Center
11:12AM 42.9889 -73.3144 337° Northwest 393 452 25,000 -480 Level Boston Center
11:13AM 43.0781 -73.3667 340° North 393 452 24,100 -540 Descending Boston Center
11:14AM 43.1944 -73.4256 North 393 452 24,000 -60 Descending Boston Center
11:15AM 43.3111 -73.4075 North 399 459 24,000  Level Boston Center
11:16AM 43.4406 -73.3836 10° North 405 466 24,000  Level Boston Center
11:17AM 43.5556 -73.3569 North 419 482 24,000 -1,140 Level Boston Center
11:18AM 43.6722 -73.3328 North 424 488 21,800 -2,340 Descending Boston Center
11:19AM 43.7831 -73.3086 North 417 480 19,400 -2,400 Descending Boston Center
11:20AM 43.8894 -73.2900 North 391 450 17,100 -2,700 Descending Boston Center
11:21AM 43.9936 -73.2683 North 386 444 14,000 -2,100 Descending Boston Center
11:22AM 44.0814 -73.2492 North 347 399 12,900 -1,560 Descending Boston Center
11:23AM 44.1564 -73.2331 North 292 336 10,900 -1,740 Descending Boston Center
11:24AM 44.2233 -73.2194 35° Northeast 253 291 9,500 -1,200 Descending Boston Center
11:25AM 44.2694 -73.1736 124° Southeast 203 234 8,500 -780 Descending Boston Center
11:26AM 44.2303 -73.0919 124° Southeast 163 188 8,000 -300 Descending Boston Center
11:27AM 44.1933 -73.0164 118° Southeast 199 229 8,000  Level Boston Center
11:28AM 44.1644 -72.9408 48° Northeast 241 277 8,000 -60 Level Boston Center
11:29AM 44.2022 -72.8831 31° Northeast 160 184 7,900 -660 Descending Boston Center
11:30AM 44.2439 -72.8486 342° North 160 184 6,700 -1,200 Descending Boston Center
11:31AM 44.2897 -72.8694 315° West 168 193 5,600 -840 Descending Boston Center
11:32AM 44.3228 -72.9161 313° West 158 182 5,100 -780 Descending Boston Center
11:33AM 44.3519 -72.9597 195° South 166 191 4,100 -1,020 Descending Boston Center
11:40AM 43.7394 -73.1833 North  Level FlightAware Approximate
11:41AM 43.8498 -73.1806 359° North  Level FlightAware Approximate
11:42AM 43.9602 -73.1833 360° North  Level FlightAware Approximate
11:43AM 44.0706 -73.1829 360° North  Level FlightAware Approximate